Time;durP1;ratioP1;P1;durP2;ratioP2;P2;SDS_P1;SDS_P2;PMS_P1;PMS_P2;Temp;Humidity;BMP_temperature;BMP_pressure;BME280_temperature;BME280_humidity;BME280_pressure;Samples;Min_cycle;Max_cycle;Signal;HPM_P1;HPM_P2
2023/11/22 00:02:28;;;;;;;;;;;;;;;-8.80;74.01;99673.00;4997625;28;20435;-74
2023/11/22 00:04:56;;;;;;;;;;;;;;;-8.79;73.87;99671.22;4999401;28;19944;-74
2023/11/22 00:07:21;;;;;;;;;;;;;;;-8.75;73.70;99677.88;4999025;28;19926;-73
2023/11/22 00:09:47;;;;;;;;;;;;;;;-8.67;73.92;99675.28;4982927;28;19989;-73
2023/11/22 00:12:13;;;;;;;;;;;;;;;-8.64;73.30;99674.13;5003716;28;19929;-73
2023/11/22 00:14:39;;;;;;;;;;;;;;;-8.64;73.01;99672.34;5004441;28;20079;-73
2023/11/22 00:17:05;;;;;;;;;;;;;;;-8.62;73.17;99667.72;4980805;28;19929;-73
2023/11/22 00:19:30;;;;;;;;;;;;;;;-8.57;73.47;99665.41;5007327;28;20454;-73
2023/11/22 00:21:58;;;;;;;;;;;;;;;-8.50;73.42;99664.81;4999675;28;20329;-74
2023/11/22 00:24:24;;;;;;;;;;;;;;;-8.50;73.14;99670.13;4997416;28;20546;-73
2023/11/22 00:26:50;;;;;;;;;;;;;;;-8.46;73.09;99653.69;4999443;28;19975;-74
2023/11/22 00:29:16;;;;;;;;;;;;;;;-8.48;72.81;99655.69;4979221;28;19925;-73
2023/11/22 00:31:42;;;;;;;;;;;;;;;-8.49;72.76;99655.84;4996928;28;19986;-73
2023/11/22 00:34:11;;;;;;;;;;;;;;;-8.50;72.82;99657.69;5003822;28;19925;-73
2023/11/22 00:36:36;;;;;;;;;;;;;;;-8.49;72.77;99651.34;4996509;28;20363;-74
2023/11/22 00:39:04;;;;;;;;;;;;;;;-8.48;72.60;99653.03;4997678;28;19937;-77
2023/11/22 00:41:30;;;;;;;;;;;;;;;-8.46;72.98;99648.38;4997755;28;19964;-78
2023/11/22 00:43:56;;;;;;;;;;;;;;;-8.41;72.67;99655.88;4998506;28;19933;-77
2023/11/22 00:46:21;;;;;;;;;;;;;;;-8.39;72.96;99659.22;4998017;28;19925;-74
2023/11/22 00:48:47;;;;;;;;;;;;;;;-8.36;73.33;99642.97;4991664;28;19925;-73
2023/11/22 00:51:13;;;;;;;;;;;;;;;-8.36;73.12;99652.78;4997778;28;19925;-74
2023/11/22 00:53:40;;;;;;;;;;;;;;;-8.34;72.90;99659.59;4998367;28;19985;-73
2023/11/22 00:56:07;;;;;;;;;;;;;;;-8.31;72.59;99655.78;4983693;28;19925;-74
2023/11/22 00:58:33;;;;;;;;;;;;;;;-8.34;73.02;99648.16;4989510;28;19929;-73
2023/11/22 01:00:59;;;;;;;;;;;;;;;-8.27;72.27;99673.91;4989946;28;19987;-73
2023/11/22 01:03:25;;;;;;;;;;;;;;;-8.28;72.65;99660.78;4996428;28;20032;-73
2023/11/22 01:05:51;;;;;;;;;;;;;;;-8.27;72.61;99652.69;5001598;28;20031;-73
2023/11/22 01:08:18;;;;;;;;;;;;;;;-8.23;72.71;99657.66;4992419;28;20128;-73
2023/11/22 01:10:45;;;;;;;;;;;;;;;-8.24;72.35;99651.53;4997943;28;20029;-73
2023/11/22 01:13:14;;;;;;;;;;;;;;;-8.27;71.49;99650.03;4998286;28;19926;-73
2023/11/22 01:15:40;;;;;;;;;;;;;;;-8.30;71.34;99644.19;4999913;28;20032;-73
2023/11/22 01:18:06;;;;;;;;;;;;;;;-8.29;71.25;99654.66;4998620;28;19975;-73
2023/11/22 01:20:33;;;;;;;;;;;;;;;-8.27;71.13;99647.38;4998184;28;20021;-74
2023/11/22 01:22:59;;;;;;;;;;;;;;;-8.28;71.10;99642.22;4981022;28;19936;-74
2023/11/22 01:25:25;;;;;;;;;;;;;;;-8.30;71.25;99647.69;5000899;28;20031;-73
2023/11/22 01:27:50;;;;;;;;;;;;;;;-8.25;71.16;99641.91;4991115;28;20032;-74
2023/11/22 01:30:23;;;;;;;;;;;;;;;-8.23;71.15;99647.06;4993837;28;20035;-78
2023/11/22 01:32:49;;;;;;;;;;;;;;;-8.20;70.98;99642.28;4968961;28;19925;-77
2023/11/22 01:35:15;;;;;;;;;;;;;;;-8.19;70.83;99637.81;5000748;28;19961;-77
2023/11/22 01:37:42;;;;;;;;;;;;;;;-8.19;71.10;99643.94;4989988;28;19929;-78
2023/11/22 01:40:13;;;;;;;;;;;;;;;-8.17;70.97;99639.31;5026545;28;21113;-74
2023/11/22 01:42:40;;;;;;;;;;;;;;;-8.18;70.81;99644.78;4999598;28;19926;-75
2023/11/22 01:45:06;;;;;;;;;;;;;;;-8.19;70.46;99637.81;4996522;28;19925;-74
2023/11/22 01:47:34;;;;;;;;;;;;;;;-8.23;70.22;99642.59;4996362;28;19925;-73
2023/11/22 01:50:02;;;;;;;;;;;;;;;-8.18;70.96;99650.09;4997201;28;19936;-74
2023/11/22 01:52:28;;;;;;;;;;;;;;;-8.14;70.85;99646.94;4998389;28;19929;-73
2023/11/22 01:54:55;;;;;;;;;;;;;;;-8.13;71.01;99647.78;4980291;28;19941;-74
2023/11/22 01:57:21;;;;;;;;;;;;;;;-8.09;71.77;99643.81;4999000;28;19935;-74
2023/11/22 01:59:47;;;;;;;;;;;;;;;-8.03;71.51;99645.03;4980235;28;19925;-78
2023/11/22 02:02:13;;;;;;;;;;;;;;;-8.03;72.05;99643.22;4964737;28;20036;-78
2023/11/22 02:04:40;;;;;;;;;;;;;;;-7.93;72.45;99655.53;4996690;28;19963;-77
2023/11/22 02:07:06;;;;;;;;;;;;;;;-7.97;72.00;99647.88;4976967;28;19970;-78
2023/11/22 02:09:32;;;;;;;;;;;;;;;-7.98;71.65;99662.16;5004578;28;19929;-77
2023/11/22 02:11:58;;;;;;;;;;;;;;;-7.94;72.79;99645.91;4998099;28;19952;-77
2023/11/22 02:14:24;;;;;;;;;;;;;;;-7.98;72.39;99654.19;5082094;28;20032;-78
2023/11/22 02:16:52;;;;;;;;;;;;;;;-8.04;72.08;99643.34;4975919;28;19926;-77
2023/11/22 02:19:18;;;;;;;;;;;;;;;-8.04;71.94;99649.50;4972084;28;19986;-78
2023/11/22 02:21:47;;;;;;;;;;;;;;;-8.07;72.19;99644.50;4980421;28;19925;-77
2023/11/22 02:24:14;;;;;;;;;;;;;;;-8.14;71.92;99652.25;4998823;28;20290;-78
2023/11/22 02:26:43;;;;;;;;;;;;;;;-8.21;71.79;99647.72;4980468;28;19926;-76
2023/11/22 02:29:09;;;;;;;;;;;;;;;-8.26;71.63;99653.53;4997655;28;20474;-78
2023/11/22 02:31:35;;;;;;;;;;;;;;;-8.31;71.46;99648.69;4996867;28;19925;-78
2023/11/22 02:34:01;;;;;;;;;;;;;;;-8.32;71.74;99644.38;5002457;28;19931;-77
2023/11/22 02:36:27;;;;;;;;;;;;;;;-8.31;71.44;99651.34;4997697;28;19963;-77
2023/11/22 02:38:53;;;;;;;;;;;;;;;-8.30;71.36;99646.84;4997823;28;20000;-73
2023/11/22 02:41:20;;;;;;;;;;;;;;;-8.31;71.21;99640.72;4981606;28;20036;-73
2023/11/22 02:43:46;;;;;;;;;;;;;;;-8.35;71.17;99654.44;4994607;28;19986;-73
2023/11/22 02:46:12;;;;;;;;;;;;;;;-8.35;71.30;99654.44;4995588;28;20372;-73
2023/11/22 02:48:38;;;;;;;;;;;;;;;-8.35;71.13;99663.25;4984526;28;19925;-73
2023/11/22 02:51:06;;;;;;;;;;;;;;;-8.30;71.59;99660.09;4965190;28;19930;-74
2023/11/22 02:53:32;;;;;;;;;;;;;;;-8.29;71.77;99661.78;4999955;28;20002;-74
2023/11/22 02:56:00;;;;;;;;;;;;;;;-8.30;71.26;99655.66;4974189;28;20143;-74
2023/11/22 02:58:27;;;;;;;;;;;;;;;-8.35;70.71;99657.09;4997122;28;20415;-73
2023/11/22 03:00:54;;;;;;;;;;;;;;;-8.43;70.82;99656.06;4989954;28;20036;-73
2023/11/22 03:03:21;;;;;;;;;;;;;;;-8.43;70.63;99664.03;4997339;28;20002;-73
2023/11/22 03:05:46;;;;;;;;;;;;;;;-8.44;71.63;99664.16;4996996;28;20245;-73
2023/11/22 03:08:13;;;;;;;;;;;;;;;-8.44;71.73;99656.22;4995641;28;19925;-73
2023/11/22 03:10:39;;;;;;;;;;;;;;;-8.47;70.90;99661.81;4998940;28;19978;-73
2023/11/22 03:13:05;;;;;;;;;;;;;;;-8.60;71.15;99648.97;4999427;28;19967;-77
2023/11/22 03:15:33;;;;;;;;;;;;;;;-8.52;70.84;99662.31;4998482;28;20210;-78
2023/11/22 03:17:58;;;;;;;;;;;;;;;-8.53;71.26;99654.50;4997784;28;20019;-77
2023/11/22 03:20:24;;;;;;;;;;;;;;;-8.59;70.68;99669.19;4996248;28;20019;-76
2023/11/22 03:22:51;;;;;;;;;;;;;;;-8.60;71.15;99660.44;4979194;28;19925;-78
2023/11/22 03:25:17;;;;;;;;;;;;;;;-8.61;71.27;99663.22;4974389;28;20256;-78
2023/11/22 03:27:44;;;;;;;;;;;;;;;-8.56;71.57;99659.13;4984353;28;20302;-77
2023/11/22 03:30:11;;;;;;;;;;;;;;;-8.56;71.32;99661.78;4999997;28;19926;-77
2023/11/22 03:32:39;;;;;;;;;;;;;;;-8.58;70.93;99666.41;5000743;28;19933;-76
2023/11/22 03:35:05;;;;;;;;;;;;;;;-8.56;70.92;99661.78;5004587;28;19929;-73
2023/11/22 03:37:32;;;;;;;;;;;;;;;-8.51;71.13;99666.63;4981846;28;19925;-73
2023/11/22 03:39:58;;;;;;;;;;;;;;;-8.44;71.69;99669.47;4999500;28;20120;-73
2023/11/22 03:42:24;;;;;;;;;;;;;;;-8.41;70.71;99661.19;4998166;28;19929;-72
2023/11/22 03:44:50;;;;;;;;;;;;;;;-8.44;70.13;99664.16;5000437;28;20441;-73
2023/11/22 03:47:16;;;;;;;;;;;;;;;-8.48;69.96;99660.16;5002226;28;19925;-72
2023/11/22 03:49:44;;;;;;;;;;;;;;;-8.50;70.25;99673.59;5002075;28;19933;-73
2023/11/22 03:52:10;;;;;;;;;;;;;;;-8.52;69.85;99664.97;4999808;28;19925;-73
2023/11/22 03:54:37;;;;;;;;;;;;;;;-8.54;69.87;99677.56;4998115;28;19933;-73
2023/11/22 03:57:03;;;;;;;;;;;;;;;-8.52;70.11;99672.91;5008473;28;19962;-73
2023/11/22 03:59:29;;;;;;;;;;;;;;;-8.51;70.16;99677.25;4998878;28;19932;-73
2023/11/22 04:01:55;;;;;;;;;;;;;;;-8.51;70.09;99682.53;5000258;28;20400;-73
2023/11/22 04:04:21;;;;;;;;;;;;;;;-8.52;69.61;99667.63;4985270;28;20379;-73
2023/11/22 04:06:48;;;;;;;;;;;;;;;-8.59;69.51;99679.81;5000276;28;19925;-73
2023/11/22 04:09:16;;;;;;;;;;;;;;;-8.62;69.41;99675.66;4994373;28;19936;-73
2023/11/22 04:11:42;;;;;;;;;;;;;;;-8.60;69.54;99676.34;4981743;28;20345;-73
2023/11/22 04:14:08;;;;;;;;;;;;;;;-8.59;69.71;99685.97;4998900;28;19925;-72
2023/11/22 04:16:34;;;;;;;;;;;;;;;-8.58;70.20;99687.63;5004362;28;20396;-72
2023/11/22 04:19:00;;;;;;;;;;;;;;;-8.58;70.33;99690.28;4981732;28;19926;-77
2023/11/22 04:21:26;;;;;;;;;;;;;;;-8.53;70.41;99684.53;4953077;28;20021;-77
2023/11/22 04:23:53;;;;;;;;;;;;;;;-8.62;70.42;99658.91;4986747;28;20112;-77
2023/11/22 04:26:20;;;;;;;;;;;;;;;-8.48;70.22;99686.69;5003212;28;20058;-73
2023/11/22 04:28:45;;;;;;;;;;;;;;;-8.48;70.15;99686.69;4997032;28;20035;-73
2023/11/22 04:31:12;;;;;;;;;;;;;;;-8.47;70.55;99683.03;5004539;28;20016;-74
2023/11/22 04:33:40;;;;;;;;;;;;;;;-8.46;70.00;99685.53;4998889;28;19925;-77
2023/11/22 04:36:06;;;;;;;;;;;;;;;-8.45;69.91;99686.38;5005015;28;20323;-77
2023/11/22 04:38:34;;;;;;;;;;;;;;;-8.48;69.67;99681.38;4997269;28;19964;-73
2023/11/22 04:41:01;;;;;;;;;;;;;;;-8.55;69.53;99681.19;4981172;28;20261;-73
2023/11/22 04:43:27;;;;;;;;;;;;;;;-8.57;69.35;99685.81;4998656;28;20348;-73
2023/11/22 04:45:52;;;;;;;;;;;;;;;-8.59;69.73;99675.34;4996575;28;19957;-73
2023/11/22 04:48:18;;;;;;;;;;;;;;;-8.64;69.70;99684.75;4994829;28;20396;-73
2023/11/22 04:50:44;;;;;;;;;;;;;;;-8.65;69.53;99693.69;4998012;28;19925;-73
2023/11/22 04:53:10;;;;;;;;;;;;;;;-8.63;69.74;99686.41;4996233;28;20410;-73
2023/11/22 04:55:36;;;;;;;;;;;;;;;-8.65;69.72;99685.72;5001053;28;20037;-74
2023/11/22 04:58:03;;;;;;;;;;;;;;;-8.67;69.58;99693.00;4995405;28;20433;-73
2023/11/22 05:00:29;;;;;;;;;;;;;;;-8.71;69.66;99692.47;4998117;28;19932;-73
2023/11/22 05:02:55;;;;;;;;;;;;;;;-8.76;70.05;99686.81;4987459;28;19925;-74
2023/11/22 05:05:21;;;;;;;;;;;;;;;-8.78;69.88;99699.38;4998848;28;20641;-73
2023/11/22 05:07:49;;;;;;;;;;;;;;;-8.79;70.15;99695.88;4974809;28;19925;-73
2023/11/22 05:10:17;;;;;;;;;;;;;;;-8.77;70.21;99701.88;4993037;28;19960;-73
2023/11/22 05:12:43;;;;;;;;;;;;;;;-8.76;70.01;99695.56;4997473;28;19926;-73
2023/11/22 05:15:11;;;;;;;;;;;;;;;-8.81;70.00;99697.84;5000436;28;20378;-73
2023/11/22 05:17:37;;;;;;;;;;;;;;;-8.80;70.29;99715.44;4989167;28;20359;-73
2023/11/22 05:20:05;;;;;;;;;;;;;;;-8.78;70.79;99715.28;5001965;28;19929;-73
2023/11/22 05:22:30;;;;;;;;;;;;;;;-8.73;70.34;99718.31;4986859;28;20500;-71
2023/11/22 05:24:56;;;;;;;;;;;;;;;-8.71;70.14;99719.00;4997046;28;20024;-71
2023/11/22 05:27:25;;;;;;;;;;;;;;;-8.70;69.75;99716.19;4997149;28;20192;-71
2023/11/22 05:29:51;;;;;;;;;;;;;;;-8.66;70.00;99724.69;4993050;28;20388;-71
2023/11/22 05:32:18;;;;;;;;;;;;;;;-8.64;70.11;99720.06;4992537;28;20304;-71
2023/11/22 05:34:44;;;;;;;;;;;;;;;-8.62;70.25;99717.25;4990125;28;20442;-71
2023/11/22 05:37:10;;;;;;;;;;;;;;;-8.58;70.08;99714.13;4990801;28;19926;-71
2023/11/22 05:39:36;;;;;;;;;;;;;;;-8.58;69.67;99708.84;4978273;28;19925;-75
2023/11/22 05:42:03;;;;;;;;;;;;;;;-8.58;69.36;99721.28;4991470;28;19932;-76
2023/11/22 05:44:29;;;;;;;;;;;;;;;-8.63;69.02;99721.72;4983931;28;19936;-75
2023/11/22 05:46:54;;;;;;;;;;;;;;;-8.70;68.96;99715.34;4987028;28;20490;-76
2023/11/22 05:49:22;;;;;;;;;;;;;;;-8.77;68.49;99716.97;4989790;28;19925;-76
2023/11/22 05:51:48;;;;;;;;;;;;;;;-8.86;68.18;99716.03;4988569;28;19933;-75
2023/11/22 05:54:16;;;;;;;;;;;;;;;-8.89;67.89;99713.69;4988867;28;19937;-75
2023/11/22 05:56:42;;;;;;;;;;;;;;;-8.97;67.83;99714.44;4992160;28;20307;-76
2023/11/22 05:59:08;;;;;;;;;;;;;;;-9.01;67.59;99724.50;4987756;28;19930;-76
2023/11/22 06:01:34;;;;;;;;;;;;;;;-8.99;68.08;99724.34;4990693;28;20328;-75
2023/11/22 06:04:00;;;;;;;;;;;;;;;-8.97;67.89;99733.00;4998577;28;19925;-76
2023/11/22 06:06:27;;;;;;;;;;;;;;;-9.05;68.02;99732.91;5000862;28;19929;-75
2023/11/22 06:08:53;;;;;;;;;;;;;;;-9.04;68.33;99731.91;4971964;28;20024;-75
2023/11/22 06:11:19;;;;;;;;;;;;;;;-8.95;68.06;99723.06;5000356;28;20031;-75
2023/11/22 06:13:47;;;;;;;;;;;;;;;-8.90;68.52;99722.59;4998222;28;19925;-75
2023/11/22 06:16:12;;;;;;;;;;;;;;;-8.88;68.46;99723.31;4997368;28;19947;-75
2023/11/22 06:18:40;;;;;;;;;;;;;;;-8.90;67.88;99727.91;5006338;28;20323;-75
2023/11/22 06:21:06;;;;;;;;;;;;;;;-8.94;67.96;99716.78;5006834;28;19937;-75
2023/11/22 06:23:33;;;;;;;;;;;;;;;-8.95;67.41;99725.72;5003930;28;20035;-76
2023/11/22 06:25:59;;;;;;;;;;;;;;;-8.99;67.40;99729.63;4999554;28;20380;-74
2023/11/22 06:28:25;;;;;;;;;;;;;;;-8.97;67.41;99725.88;5001410;28;19932;-75
2023/11/22 06:30:51;;;;;;;;;;;;;;;-8.89;67.82;99722.47;4999950;28;19941;-75
2023/11/22 06:33:17;;;;;;;;;;;;;;;-8.83;67.60;99731.63;5000084;28;19948;-75
2023/11/22 06:35:43;;;;;;;;;;;;;;;-8.81;67.95;99729.66;4998325;28;19932;-75
2023/11/22 06:38:09;;;;;;;;;;;;;;;-8.83;68.23;99737.75;4998494;28;19925;-74
2023/11/22 06:40:37;;;;;;;;;;;;;;;-8.85;67.81;99728.31;4997157;28;19925;-75
2023/11/22 06:43:06;;;;;;;;;;;;;;;-8.90;67.73;99747.31;4987486;28;20686;-75
2023/11/22 06:45:33;;;;;;;;;;;;;;;-8.94;67.33;99742.44;5007878;28;20041;-75
2023/11/22 06:47:58;;;;;;;;;;;;;;;-8.97;67.29;99740.94;5003450;28;19973;-71
2023/11/22 06:50:24;;;;;;;;;;;;;;;-8.98;66.73;99733.97;4992053;28;19967;-71
2023/11/22 06:52:52;;;;;;;;;;;;;;;-8.99;66.50;99746.38;4992898;28;19957;-71
2023/11/22 06:55:18;;;;;;;;;;;;;;;-8.92;67.02;99745.78;4999607;28;19941;-72
2023/11/22 06:57:47;;;;;;;;;;;;;;;-8.87;66.79;99751.47;4998332;28;19956;-71
2023/11/22 07:00:14;;;;;;;;;;;;;;;-8.85;67.07;99746.88;4999092;28;19948;-71
2023/11/22 07:02:40;;;;;;;;;;;;;;;-8.86;67.04;99753.97;5004150;28;19936;-71
2023/11/22 07:05:09;;;;;;;;;;;;;;;-8.86;67.47;99753.97;5000230;28;19962;-71
2023/11/22 07:07:36;;;;;;;;;;;;;;;-8.78;67.23;99752.41;4984757;28;20392;-72
2023/11/22 07:10:02;;;;;;;;;;;;;;;-8.78;67.03;99757.72;5002020;28;19982;-72
2023/11/22 07:12:27;;;;;;;;;;;;;;;-8.78;67.65;99755.88;5014475;28;19932;-72
2023/11/22 07:14:55;;;;;;;;;;;;;;;-8.75;67.99;99763.53;5006161;28;19933;-71
2023/11/22 07:17:22;;;;;;;;;;;;;;;-8.72;67.87;99762.41;5022776;28;19978;-77
2023/11/22 07:19:48;;;;;;;;;;;;;;;-8.66;67.94;99764.47;5000278;28;19929;-76
2023/11/22 07:22:19;;;;;;;;;;;;;;;-8.59;68.57;99760.22;5006852;28;19929;-71
2023/11/22 07:24:45;;;;;;;;;;;;;;;-8.47;68.81;99766.09;5001866;28;19960;-72
2023/11/22 07:27:12;;;;;;;;;;;;;;;-8.38;69.23;99768.81;5003729;28;20325;-72
2023/11/22 07:29:37;;;;;;;;;;;;;;;-8.36;68.63;99758.88;5015221;28;19925;-72
2023/11/22 07:32:05;;;;;;;;;;;;;;;-8.37;68.70;99763.34;5008558;28;20020;-77
2023/11/22 07:34:31;;;;;;;;;;;;;;;-8.34;68.72;99762.22;5007556;28;20380;-76
2023/11/22 07:36:57;;;;;;;;;;;;;;;-8.38;67.92;99756.38;5005320;28;19996;-76
2023/11/22 07:39:27;;;;;;;;;;;;;;;-8.45;66.84;99760.63;5025142;28;19925;-76
2023/11/22 07:41:53;;;;;;;;;;;;;;;-8.46;66.55;99766.94;5007433;28;20023;-72
2023/11/22 07:44:19;;;;;;;;;;;;;;;-8.36;66.17;99766.84;5002268;28;20344;-72
2023/11/22 07:46:45;;;;;;;;;;;;;;;-8.23;65.07;99774.41;5004575;28;19929;-72
2023/11/22 07:49:13;;;;;;;;;;;;;;;-8.16;64.38;99762.22;5047737;28;20025;-72
2023/11/22 07:51:39;;;;;;;;;;;;;;;-7.97;64.11;99772.63;5059211;28;20135;-72
2023/11/22 07:54:05;;;;;;;;;;;;;;;-7.80;63.35;99769.25;5016364;28;20052;-72
2023/11/22 07:56:32;;;;;;;;;;;;;;;-7.63;62.75;99763.06;5005108;28;19925;-73
2023/11/22 07:58:58;;;;;;;;;;;;;;;-7.49;62.34;99761.66;5002022;28;20024;-73
2023/11/22 08:01:25;;;;;;;;;;;;;;;-7.48;61.82;99770.47;5001763;28;20020;-72
2023/11/22 08:03:51;;;;;;;;;;;;;;;-7.45;61.94;99768.31;5009578;28;19933;-77
2023/11/22 08:06:18;;;;;;;;;;;;;;;-7.28;61.63;99768.38;5002789;28;19953;-76
2023/11/22 08:08:45;;;;;;;;;;;;;;;-7.00;61.24;99765.50;5002736;28;20029;-73
2023/11/22 08:11:14;;;;;;;;;;;;;;;-6.90;60.81;99762.72;5003889;28;20033;-72
2023/11/22 08:13:40;;;;;;;;;;;;;;;-6.85;60.62;99763.88;5003224;28;20490;-73
2023/11/22 08:16:06;;;;;;;;;;;;;;;-6.93;60.93;99753.25;5001640;28;19931;-73
2023/11/22 08:18:32;;;;;;;;;;;;;;;-7.14;61.06;99758.97;5002415;28;20036;-72
2023/11/22 08:20:58;;;;;;;;;;;;;;;-7.31;61.17;99760.72;5011512;28;20484;-77
2023/11/22 08:23:26;;;;;;;;;;;;;;;-7.43;61.50;99752.22;5008027;28;20007;-73
2023/11/22 08:25:52;;;;;;;;;;;;;;;-7.47;61.60;99764.97;5008241;28;20368;-76
2023/11/22 08:28:18;;;;;;;;;;;;;;;-7.46;62.08;99753.34;5016394;28;19929;-76
2023/11/22 08:30:44;;;;;;;;;;;;;;;-7.43;62.11;99755.69;5012265;28;19953;-76
2023/11/22 08:33:10;;;;;;;;;;;;;;;-7.37;61.93;99756.06;4992018;28;20363;-77
2023/11/22 08:35:36;;;;;;;;;;;;;;;-7.39;61.53;99753.56;5013928;28;19931;-76
2023/11/22 08:38:03;;;;;;;;;;;;;;;-7.38;61.57;99749.09;5019435;28;19931;-76
2023/11/22 08:40:30;;;;;;;;;;;;;;;-7.40;61.18;99759.84;5001416;28;20032;-76
2023/11/22 08:42:56;;;;;;;;;;;;;;;-7.24;61.11;99753.81;5001268;28;19929;-77
2023/11/22 08:45:23;;;;;;;;;;;;;;;-6.94;60.14;99754.25;4999939;28;19978;-76
2023/11/22 08:47:51;;;;;;;;;;;;;;;-6.76;59.53;99747.97;5027352;28;19929;-76
2023/11/22 08:50:18;;;;;;;;;;;;;;;-6.58;59.45;99747.81;4980970;28;20016;-76
2023/11/22 08:52:45;;;;;;;;;;;;;;;-6.36;58.84;99753.50;5036754;28;19924;-76
2023/11/22 08:55:11;;;;;;;;;;;;;;;-6.14;57.69;99747.50;5011912;28;19970;-76
2023/11/22 08:57:38;;;;;;;;;;;;;;;-6.02;57.52;99752.50;5021088;28;19926;-77
2023/11/22 09:00:14;;;;;;;;;;;;;;;-5.93;57.04;99748.81;5013237;28;19925;-77
2023/11/22 09:02:40;;;;;;;;;;;;;;;-6.17;57.27;99742.53;4994394;28;20421;-76
2023/11/22 09:05:08;;;;;;;;;;;;;;;-6.13;57.78;99745.69;5006076;28;19945;-76
2023/11/22 09:07:35;;;;;;;;;;;;;;;-6.07;57.52;99746.84;5001267;28;19959;-76
2023/11/22 09:10:09;;;;;;;;;;;;;;;-5.90;56.83;99740.47;4985715;28;19925;-76
2023/11/22 09:12:35;;;;;;;;;;;;;;;-5.72;56.43;99737.59;5103118;28;19927;-77
2023/11/22 09:15:03;;;;;;;;;;;;;;;-5.67;56.27;99730.94;5045247;28;20395;-76
2023/11/22 09:17:29;;;;;;;;;;;;;;;-5.76;56.02;99736.28;5005035;28;19925;-77
2023/11/22 09:19:56;;;;;;;;;;;;;;;-5.93;56.28;99743.50;5002826;28;20266;-76
2023/11/22 09:22:21;;;;;;;;;;;;;;;-5.99;56.59;99742.31;4985969;28;19925;-77
2023/11/22 09:24:47;;;;;;;;;;;;;;;-6.13;56.80;99743.03;5011042;28;19948;-76
2023/11/22 09:27:17;;;;;;;;;;;;;;;-6.30;57.39;99739.53;4972966;28;19971;-77
2023/11/22 09:29:44;;;;;;;;;;;;;;;-6.33;57.62;99745.19;5061833;28;19923;-77
2023/11/22 09:32:12;;;;;;;;;;;;;;;-6.56;57.90;99737.84;5084119;28;20035;-76
2023/11/22 09:34:38;;;;;;;;;;;;;;;-6.63;58.55;99747.47;4997986;28;19925;-77
2023/11/22 09:37:04;;;;;;;;;;;;;;;-6.68;58.54;99747.97;5001433;28;19940;-77
2023/11/22 09:39:30;;;;;;;;;;;;;;;-6.57;58.69;99749.47;5015350;28;19925;-76
2023/11/22 09:41:56;;;;;;;;;;;;;;;-6.46;58.59;99743.84;5003022;28;20399;-77
2023/11/22 09:44:22;;;;;;;;;;;;;;;-6.34;58.44;99746.19;4987408;28;19948;-78
2023/11/22 09:46:48;;;;;;;;;;;;;;;-6.37;58.31;99746.53;4998914;28;20388;-77
2023/11/22 09:49:19;;;;;;;;;;;;;;;-6.40;58.55;99742.34;4984797;28;19986;-76
2023/11/22 09:51:47;;;;;;;;;;;;;;;-6.41;58.71;99757.47;5002542;28;19929;-77
2023/11/22 09:54:14;;;;;;;;;;;;;;;-6.44;58.95;99749.00;5005841;28;19925;-77
2023/11/22 09:56:41;;;;;;;;;;;;;;;-6.40;58.84;99750.34;5001524;28;20668;-77
2023/11/22 09:59:07;;;;;;;;;;;;;;;-6.37;58.70;99746.53;4999348;28;19956;-76
2023/11/22 10:01:36;;;;;;;;;;;;;;;-6.41;58.97;99748.69;4988010;28;20032;-77
2023/11/22 10:04:03;;;;;;;;;;;;;;;-6.44;59.23;99746.34;5014485;28;19955;-77
2023/11/22 10:06:33;;;;;;;;;;;;;;;-6.49;58.82;99743.34;4992479;28;19925;-76
2023/11/22 10:09:00;;;;;;;;;;;;;;;-6.39;59.01;99741.34;5012034;28;19970;-72
2023/11/22 10:11:28;;;;;;;;;;;;;;;-6.25;58.63;99741.69;4995104;28;19925;-77
2023/11/22 10:13:54;;;;;;;;;;;;;;;-6.19;58.39;99741.00;5016296;28;20155;-77
2023/11/22 10:16:20;;;;;;;;;;;;;;;-6.09;58.37;99743.50;5007955;28;19932;-77
2023/11/22 10:18:48;;;;;;;;;;;;;;;-5.95;58.19;99737.47;5008406;28;20462;-77
2023/11/22 10:21:20;;;;;;;;;;;;;;;-5.91;57.85;99743.31;5006954;28;19986;-72
2023/11/22 10:23:48;;;;;;;;;;;;;;;-5.94;58.32;99748.97;5001053;28;19933;-77
2023/11/22 10:26:17;;;;;;;;;;;;;;;-5.97;57.87;99747.47;5002360;28;19936;-76
2023/11/22 10:28:43;;;;;;;;;;;;;;;-6.18;57.94;99742.69;5006731;28;19965;-76
2023/11/22 10:31:09;;;;;;;;;;;;;;;-6.23;58.22;99745.03;5004735;28;19926;-76
2023/11/22 10:33:38;;;;;;;;;;;;;;;-6.28;58.50;99750.84;4997673;28;19983;-77
2023/11/22 10:36:04;;;;;;;;;;;;;;;-6.25;58.61;99755.00;5006637;28;19952;-77
2023/11/22 10:38:30;;;;;;;;;;;;;;;-6.13;58.40;99745.69;5005615;28;20018;-77
2023/11/22 10:40:59;;;;;;;;;;;;;;;-6.01;58.29;99732.84;5080203;28;20390;-77
2023/11/22 10:43:27;;;;;;;;;;;;;;;-5.76;57.55;99738.13;5018333;28;19929;-77
2023/11/22 10:45:54;;;;;;;;;;;;;;;-5.87;57.80;99744.63;5016148;28;19970;-77
2023/11/22 10:48:21;;;;;;;;;;;;;;;-5.81;57.71;99743.13;4995624;28;20036;-77
2023/11/22 10:50:47;;;;;;;;;;;;;;;-5.95;57.28;99741.97;4981828;28;20024;-76
2023/11/22 10:53:15;;;;;;;;;;;;;;;-6.02;57.87;99744.50;5001530;28;19929;-77
2023/11/22 10:55:44;;;;;;;;;;;;;;;-6.04;57.97;99743.84;5003555;28;19925;-77
2023/11/22 10:58:13;;;;;;;;;;;;;;;-6.13;58.09;99733.19;5002807;28;19925;-76
2023/11/22 11:00:41;;;;;;;;;;;;;;;-6.17;58.42;99736.34;4986364;28;20010;-77
2023/11/22 11:03:09;;;;;;;;;;;;;;;-6.08;58.49;99739.88;5007583;28;19925;-78
2023/11/22 11:05:38;;;;;;;;;;;;;;;-6.18;58.30;99746.19;5002212;28;19933;-72
2023/11/22 11:08:10;;;;;;;;;;;;;;;-6.23;58.64;99732.56;5004331;28;20014;-73
2023/11/22 11:10:38;;;;;;;;;;;;;;;-6.34;58.82;99736.34;5001487;28;19925;-73
2023/11/22 11:13:04;;;;;;;;;;;;;;;-6.36;59.12;99745.53;4999818;28;19925;-73
2023/11/22 11:15:32;;;;;;;;;;;;;;;-6.43;59.48;99737.38;5000312;28;19926;-74
2023/11/22 11:17:58;;;;;;;;;;;;;;;-6.36;59.57;99737.53;5007564;28;19925;-73
2023/11/22 11:20:24;;;;;;;;;;;;;;;-6.43;59.43;99732.03;4996478;28;19932;-73
2023/11/22 11:22:52;;;;;;;;;;;;;;;-6.55;59.56;99723.56;5002553;28;19952;-72
2023/11/22 11:25:21;;;;;;;;;;;;;;;-6.56;59.95;99724.53;5005733;28;20404;-72
2023/11/22 11:27:56;;;;;;;;;;;;;;;-6.45;59.48;99731.38;5001524;28;20150;-72
2023/11/22 11:30:43;;;;;;;;;;;;;;;-6.43;59.65;99722.22;5003480;28;19925;-73
2023/11/22 11:33:09;;;;;;;;;;;;;;;-6.29;59.53;99717.22;5035691;28;19923;-73
2023/11/22 11:35:38;;;;;;;;;;;;;;;-6.23;59.48;99724.56;5063478;28;19926;-73
2023/11/22 11:38:04;;;;;;;;;;;;;;;-6.28;59.31;99721.56;5003007;28;19929;-73
2023/11/22 11:40:31;;;;;;;;;;;;;;;-6.29;59.53;99714.56;5005530;28;19925;-73
2023/11/22 11:42:58;;;;;;;;;;;;;;;-6.37;59.51;99717.25;5004180;28;20093;-72
2023/11/22 11:45:24;;;;;;;;;;;;;;;-6.45;60.14;99720.75;4996652;28;19925;-72
2023/11/22 11:47:53;;;;;;;;;;;;;;;-6.56;60.40;99719.22;4989845;28;19996;-73
2023/11/22 11:50:20;;;;;;;;;;;;;;;-6.63;60.90;99716.41;4972920;28;20009;-72
2023/11/22 11:52:46;;;;;;;;;;;;;;;-6.68;61.23;99710.72;4994280;28;20429;-72
2023/11/22 11:55:11;;;;;;;;;;;;;;;-6.74;61.75;99720.19;5005334;28;19925;-72
2023/11/22 11:57:37;;;;;;;;;;;;;;;-6.78;61.80;99715.38;4995945;28;19930;-73
2023/11/22 12:00:05;;;;;;;;;;;;;;;-6.88;62.20;99727.00;5050310;28;19966;-77
2023/11/22 12:02:40;;;;;;;;;;;;;;;-6.91;62.45;99729.13;5009498;28;19929;-73
2023/11/22 12:05:08;;;;;;;;;;;;;;;-6.91;62.62;99721.16;5002923;28;19925;-76
2023/11/22 12:07:35;;;;;;;;;;;;;;;-7.00;62.66;99731.78;4994390;28;20320;-77
2023/11/22 12:10:01;;;;;;;;;;;;;;;-7.04;62.97;99730.44;4996166;28;19932;-76
2023/11/22 12:12:31;;;;;;;;;;;;;;;-7.10;63.15;99733.75;5001145;28;19925;-72
2023/11/22 12:14:57;;;;;;;;;;;;;;;-7.13;63.10;99732.22;4997768;28;19925;-72
2023/11/22 12:17:24;;;;;;;;;;;;;;;-7.19;63.47;99737.34;4998879;28;19925;-72
2023/11/22 12:19:50;;;;;;;;;;;;;;;-7.24;63.77;99737.00;5002784;28;19925;-72
2023/11/22 12:22:17;;;;;;;;;;;;;;;-7.24;64.18;99742.31;4999001;28;19926;-71
2023/11/22 12:24:43;;;;;;;;;;;;;;;-7.24;64.33;99734.34;4999293;28;19926;-72
2023/11/22 12:27:10;;;;;;;;;;;;;;;-7.27;64.45;99741.66;5008331;28;19932;-72
2023/11/22 12:29:36;;;;;;;;;;;;;;;-7.30;64.77;99744.63;5021639;28;20000;-72
2023/11/22 12:32:02;;;;;;;;;;;;;;;-7.30;65.09;99752.59;5029997;28;19924;-72
2023/11/22 12:34:30;;;;;;;;;;;;;;;-7.32;65.16;99751.94;5000468;28;20310;-72
2023/11/22 12:36:56;;;;;;;;;;;;;;;-7.37;65.30;99753.41;4999101;28;19925;-72
2023/11/22 12:39:24;;;;;;;;;;;;;;;-7.45;65.37;99746.22;5002838;28;20052;-72
2023/11/22 12:41:50;;;;;;;;;;;;;;;-7.50;65.74;99759.97;5002368;28;20395;-72
2023/11/22 12:44:16;;;;;;;;;;;;;;;-7.51;65.53;99760.97;5005824;28;19951;-72
2023/11/22 12:46:48;;;;;;;;;;;;;;;-7.51;65.47;99766.28;5001304;28;20024;-72